Union Hall, VA (24176)

6:24 AM EST on December 07, 2016 (GMT -0500)
Virginia Key (Piney Point Rd) | | Change Station

Elev 843 ft 37.03 °N, 79.67 °W | Updated 27 seconds ago

Clear
Clear
38.5 °F
Feels Like 38 °F
N
0.0
Wind Variable Wind from SSE
Gusts 0.0 mph

Today
High -- | Low -- °F
--% Chance of Precip.
Yesterday
High -- | Low -- °F
Precip. -- in
Pressure 30.01 in
Visibility 10.0 miles
Clouds Clear
Windchill 38 °F
Dew Point 38 °F
Humidity 99%
Rainfall 0.00 in
Snow Depth Not available.
7:19 AM 5:01 PM
Waxing Crescent, 51% visible
METAR KROA 071054Z 32003KT 10SM CLR 06/01 A3000 RMK AO2 SLP161 T00610011
Pressure 30.01 in
Visibility 10.0 miles
Clouds Clear
Windchill 38 °F
Dew Point 38 °F
Humidity 99%
Rainfall 0.00 in
Snow Depth Not available.
7:19 AM 5:01 PM
Waxing Crescent, 51% visible
METAR KROA 071054Z 32003KT 10SM CLR 06/01 A3000 RMK AO2 SLP161 T00610011

10-Day Weather Forecast

Almanac

Astronomy

Dec. 07, 2016 Rise Set
Actual Time
Civil Twilight
Nautical Twilight
Astronomical Twilight
Moon
Length of Visible Light
Length of Day
Tomorrow will be .
, % of the Moon is Illuminated

Today's Extremes

State Highs State Lows

Community

WunderPhotos

Upload Photos

1,956,111 photos uploaded!

WunderBlog® & News

Nearby

Air Quality

  Air Quality AQ Index Pollutant
Not available.

Snow Depth

Station Depth Elevation

Earthquake Activity

City Distance Mag. Time & Date
Minimum magnitude displayed is 2.5.

Coastal Water Temperatures

Place Temperature

Stations

Nearby Weather Stations

Station Location Temp. Windchill Dew Point Humidity Wind Precip. Elev Updated Type
                   

Watches & Warnings

There are currently no watches in effect.